臺北終端管制區 - 桃園掃描雷達席

METAR RCTP 252130Z 17004KT 140V230 9999 FEW012 25/22 Q1009 NOSIG RMK A2982=

站台狀態:Online
最後更新:2019-05-26 05:45:01